This is the latest recevied weather packets stored in our database for station/object LRSB. If no packets are shown the sender has not sent any weather packets the latest 10 day(s).
| Time | Temp. | Humidity | Pressure | Rain* | Wind** | Luminosity | Snow |
|---|---|---|---|---|---|---|---|
| 1777861091 | 3.89° C | 81% | 1019 hPa | - | - | - | - |
| 1777860191 | 3.89° C | 81% | 1019 hPa | - | - | - | - |
| 1777859291 | 5° C | 76% | 1019 hPa | - | - | - | - |
| 1777858396 | 5° C | 76% | 1019 hPa | - | - | - | - |
| 1777857566 | 5° C | 76% | 1019 hPa | - | - | - | - |
| 1777856591 | 5° C | 76% | 1019 hPa | - | - | - | - |
| 1777855767 | 7.22° C | 66% | 1019 hPa | - | - | - | - |
| 1777854791 | 7.22° C | 66% | 1019 hPa | - | - | - | - |
| 1777853891 | 6.11° C | 71% | 1018 hPa | - | - | - | - |
| 1777852991 | 6.11° C | 71% | 1018 hPa | - | - | - | - |
| 1777852131 | 7.78° C | 62% | 1019 hPa | - | - | - | - |
| 1777851191 | 7.78° C | 62% | 1019 hPa | - | - | - | - |
| 1777850295 | 8.89° C | 62% | 1019 hPa | - | - | - | - |
| 1777849403 | 8.89° C | 62% | 1019 hPa | - | - | - | - |
| 1777848491 | 8.89° C | 58% | 1019 hPa | - | - | - | - |
| 1777847603 | 8.89° C | 58% | 1019 hPa | - | - | - | - |
| 1777846708 | 10° C | 54% | 1019 hPa | - | - | - | - |
| 1777845833 | 10° C | 54% | 1019 hPa | - | - | - | - |
| 1777844898 | 10° C | 54% | 1019 hPa | - | - | - | - |
| 1777843991 | 10° C | 54% | 1019 hPa | - | - | - | - |
| 1777843092 | 10° C | 50% | 1019 hPa | - | - | - | - |
| 1777842191 | 10° C | 50% | 1019 hPa | - | - | - | - |
| 1777841298 | 10° C | 47% | 1019 hPa | - | - | - | - |
| 1777840466 | 10° C | 47% | 1019 hPa | - | - | - | - |
| 1777839491 | 8.89° C | 58% | 1019 hPa | - | - | - | - |
* Rain since midnight (hover to see other rain measurements)
** Current wind speed in m/s (hover to see current wind gust speed)